METAR Data
IDs: Format: Raw Decoded Include TAF

Data at: 1519 UTC 21 Sep 2018

KBPK 211453Z AUTO VRB04KT 10SM CLR 25/21 A3009 RMK AO2 SLP177 60001 T02500206 51021 TSNO
KBPK 211353Z AUTO VRB03KT 10SM FEW006 SCT060 OVC110 23/22 A3009 RMK AO2 RAB21E38 SLP177 P0001 T02280222 TSNO
KBPK 211334Z AUTO VRB06KT 7SM -RA FEW007 BKN050 OVC100 23/22 A3008 RMK AO2 RAB21 P0001 T02280222 TSNO
KBPK 211253Z AUTO 00000KT 10SM BKN037 BKN049 BKN120 25/22 A3005 RMK AO2 SLP163 T02500217 TSNO
KBPK 211153Z AUTO 00000KT 10SM BKN048 23/21 A3002 RMK AO2 SLP156 T02330211 10244 20222 51015 TSNO
KBPK 211053Z AUTO 00000KT 10SM CLR 24/21 A3002 RMK AO2 SLP152 T02390211 TSNO
KBPK 210953Z AUTO 21003KT 10SM CLR 23/21 A3000 RMK AO2 SLP146 T02330211 TSNO
KBPK 210853Z AUTO 22003KT 10SM CLR 24/21 A2998 RMK AO2 SLP140 T02390211 55001 TSNO
KBPK 210753Z AUTO 19003KT 10SM CLR 23/21 A2997 RMK AO2 SLP137 T02280211 TSNO
KBPK 210653Z AUTO 18003KT 10SM CLR 23/21 A2997 RMK AO2 SLP138 T02280211 TSNO
KBPK 210553Z AUTO 00000KT 10SM CLR 24/21 A2998 RMK AO2 SLP139 T02440206 10294 20233 403440217 50009 TSNO
KBPK 210453Z AUTO 00000KT 10SM CLR 24/21 A2998 RMK AO2 SLP141 T02390206 TSNO
KBPK 210353Z AUTO 00000KT 10SM CLR 26/21 A2997 RMK AO2 SLP136 T02560206 TSNO
KBPK 210253Z AUTO 00000KT 10SM CLR 26/21 A2995 RMK AO2 SLP131 T02560206 53011 TSNO
KBPK 210153Z AUTO 19003KT 10SM CLR 27/21 A2994 RMK AO2 SLP128 T02670206 TSNO
KBPK 210053Z AUTO 19005KT 10SM CLR 28/21 A2993 RMK AO2 SLP122 T02780206 TSNO
KBPK 202353Z AUTO 20004KT 10SM CLR 29/19 A2992 RMK AO2 SLP121 T02940194 10344 20294 55004 TSNO
KBPK 202253Z AUTO 19006KT 10SM CLR 32/19 A2992 RMK AO2 SLP119 T03170194
KBPK 202053Z AUTO 20007G17KT 10SM FEW055 32/19 A2993 RMK AO2 SLP123 T03220194 56019
KBPK 201953Z AUTO 20010G14KT 10SM SCT060 SCT080 34/20 A2994 RMK AO2 SLP127 T03440200
KBPK 201853Z AUTO VRB06KT 10SM FEW060 33/21 A2997 RMK AO2 SLP136 T03330206
KBPK 201753Z AUTO 21011G14KT 10SM SCT048 34/21 A2999 RMK AO2 SLP142 T03390211 10339 20222 58012
KBPK 201653Z AUTO 21007KT 10SM CLR 33/22 A3001 RMK AO2 SLP149 T03280217
KBPK 201553Z AUTO VRB05KT 10SM CLR 31/22 A3002 RMK AO2 SLP153 T03060217
KBPK 201453Z AUTO 19006KT 10SM CLR 29/22 A3002 RMK AO2 SLP154 T02890217 51010
KBPK 201353Z AUTO 18005KT 10SM CLR 26/21 A3002 RMK AO2 SLP153 T02610211
KBPK 201253Z AUTO 18004KT 10SM CLR 24/21 A3000 RMK AO2 SLP149 T02390211
KBPK 201153Z AUTO 17004KT 10SM CLR 22/21 A2999 RMK AO2 SLP145 T02220206 10244 20217 53004
KBPK 201053Z AUTO 17004KT 10SM CLR 22/21 A2998 RMK AO2 SLP141 T02220211
KBPK 200953Z AUTO 00000KT 10SM CLR 22/22 A2998 RMK AO2 SLP138 T02220217
KBPK 200853Z AUTO 00000KT 10SM CLR 23/22 A2998 RMK AO2 SLP141 T02280217 53002
KBPK 200753Z AUTO 00000KT 10SM CLR 23/22 A2998 RMK AO2 SLP140 T02330217
KBPK 200653Z AUTO 00000KT 10SM CLR 24/22 A2997 RMK AO2 SLP136 T02440217
KBPK 200553Z AUTO 17003KT 10SM CLR 24/22 A2997 RMK AO2 SLP136 T02440222 10283 20244 403500211 50000
KBPK 200453Z AUTO 17003KT 10SM CLR 25/22 A2998 RMK AO2 SLP140 T02500222
KBPK 200353Z AUTO 17003KT 10SM CLR 26/23 A2998 RMK AO2 SLP139 T02610228